Chanthaburi, Thailand
Current Conditions -  °F | °C
As of 2:00 PM on Monday 22 Dec 2014 (Local Time) from VTBU Reporting Station
Clear Clear  
Wind Chill: 84°   Ceiling: Unl
Heat Index: 84°   Visibility: 4mi
Dew Point: 55°   Wind: 8mph
Humidity: 37%   Direction: 10°N
Pressure: 29.83"   Gusts: NA
Location:  12.61°N, 102.11°E
Report Text: VTBU 220700Z 01007KT 7000 NSC 29/13 Q1010 A2984
Loading
Personal Weather Stations






























Interactive Weather Map New forecast layout! Learn more

10-Day Weather Forecast

Advertisements
Track Severe Weather on mobile